createdAt,value
2017-12-04T00:02:19.960Z,101409.13
2017-12-04T00:04:45.787Z,101418.88
2017-12-04T00:07:11.959Z,101418.73
2017-12-04T00:09:37.789Z,101413.16
2017-12-04T00:12:03.905Z,101417.40
2017-12-04T00:14:29.900Z,101418.12
2017-12-04T00:16:55.720Z,101416.89
2017-12-04T00:19:21.532Z,101416.52
2017-12-04T00:21:47.870Z,101419.91
2017-12-04T00:24:14.596Z,101412.95
2017-12-04T00:26:40.404Z,101414.40
2017-12-04T00:29:07.007Z,101413.46
2017-12-04T00:31:32.798Z,101420.42
2017-12-04T00:33:58.579Z,101419.83
2017-12-04T00:36:24.738Z,101421.79
2017-12-04T00:38:50.550Z,101428.30
2017-12-04T00:41:16.337Z,101428.54
2017-12-04T00:43:42.133Z,101422.23
2017-12-04T00:46:07.945Z,101418.09
2017-12-04T00:48:33.730Z,101424.91
2017-12-04T00:50:59.542Z,101419.27
2017-12-04T00:53:25.330Z,101419.67
2017-12-04T00:55:51.139Z,101420.91
2017-12-04T00:58:16.967Z,101429.19
2017-12-04T01:00:42.784Z,101426.75
2017-12-04T01:03:08.578Z,101423.16
2017-12-04T01:05:34.393Z,101426.74
2017-12-04T01:08:00.206Z,101427.80
2017-12-04T01:10:25.984Z,101431.31
2017-12-04T01:12:51.788Z,101427.22
2017-12-04T01:15:17.571Z,101424.14
2017-12-04T01:17:43.388Z,101425.16
2017-12-04T01:20:09.172Z,101428.52
2017-12-04T01:22:34.951Z,101422.25
2017-12-04T01:25:00.760Z,101430.67
2017-12-04T01:27:26.556Z,101429.63
2017-12-04T01:29:52.347Z,101426.63
2017-12-04T01:32:18.180Z,101425.66
2017-12-04T01:34:43.980Z,101424.94
2017-12-04T01:37:09.755Z,101428.83
2017-12-04T01:39:35.548Z,101435.25
2017-12-04T01:42:01.370Z,101437.14
2017-12-04T01:44:27.179Z,101428.69
2017-12-04T01:46:52.982Z,101433.96
2017-12-04T01:49:18.760Z,101437.67
2017-12-04T01:51:44.588Z,101434.66
2017-12-04T01:54:10.405Z,101438.77
2017-12-04T01:56:36.181Z,101446.99
2017-12-04T01:59:02.259Z,101443.84
2017-12-04T02:01:28.072Z,101443.26
2017-12-04T02:03:53.867Z,101447.25
2017-12-04T02:06:19.674Z,101453.55
2017-12-04T02:08:45.480Z,101459.20
2017-12-04T02:11:11.265Z,101452.02
2017-12-04T02:13:37.072Z,101449.91
2017-12-04T02:16:02.897Z,101452.55
2017-12-04T02:18:28.715Z,101448.44
2017-12-04T02:20:54.514Z,101447.06
2017-12-04T02:23:20.319Z,101439.72
2017-12-04T02:25:46.220Z,101442.15
2017-12-04T02:28:12.007Z,101445.14
2017-12-04T02:30:37.792Z,101439.53
2017-12-04T02:33:03.621Z,101440.30
2017-12-04T02:35:29.439Z,101435.52
2017-12-04T02:37:55.257Z,101436.85
2017-12-04T02:40:21.334Z,101431.67
2017-12-04T02:42:47.160Z,101425.97
2017-12-04T02:45:12.971Z,101440.98
2017-12-04T02:47:39.656Z,101439.00
2017-12-04T02:50:05.454Z,101439.22
2017-12-04T02:52:31.263Z,101432.48
2017-12-04T02:54:57.171Z,101439.45
2017-12-04T02:57:22.994Z,101439.66
2017-12-04T02:59:48.803Z,101437.53
2017-12-04T03:04:47.634Z,101422.53
2017-12-04T03:07:13.412Z,101426.05
2017-12-04T03:09:39.187Z,101422.02
2017-12-04T03:12:04.992Z,101418.95
2017-12-04T03:14:30.776Z,101413.83
2017-12-04T03:16:56.572Z,101408.77
2017-12-04T03:19:22.378Z,101409.52
2017-12-04T03:21:48.177Z,101414.19
2017-12-04T03:24:14.072Z,101418.74
2017-12-04T03:26:39.886Z,101418.12
2017-12-04T03:29:05.687Z,101424.08
2017-12-04T03:31:31.490Z,101428.25
2017-12-04T03:33:57.317Z,101419.98
2017-12-04T03:36:23.149Z,101420.42
2017-12-04T03:38:48.940Z,101419.52
2017-12-04T03:41:14.752Z,101423.83
2017-12-04T03:43:40.566Z,101421.27
2017-12-04T03:46:06.383Z,101420.97
2017-12-04T03:48:32.176Z,101421.48
2017-12-04T03:50:57.960Z,101424.44
2017-12-04T03:53:23.762Z,101425.07
2017-12-04T03:55:49.568Z,101432.33
2017-12-04T03:58:15.374Z,101423.55
2017-12-04T04:00:41.294Z,101428.83
2017-12-04T04:03:07.101Z,101427.56
2017-12-04T04:05:32.904Z,101425.37
2017-12-04T04:07:58.713Z,101430.14
2017-12-04T04:10:24.521Z,101433.80
2017-12-04T04:12:50.311Z,101441.77
2017-12-04T04:15:16.198Z,101442.30
2017-12-04T04:17:42.008Z,101446.75
2017-12-04T04:20:07.807Z,101445.66
2017-12-04T04:22:33.638Z,101438.84
2017-12-04T04:24:59.478Z,101432.33
2017-12-04T04:27:25.569Z,101440.09
2017-12-04T04:29:51.343Z,101444.20
2017-12-04T04:32:17.139Z,101446.03
2017-12-04T04:34:44.041Z,101448.95
2017-12-04T04:37:09.831Z,101450.98
2017-12-04T04:39:35.619Z,101454.88
2017-12-04T04:42:01.474Z,101450.86
2017-12-04T04:44:27.281Z,101449.32
2017-12-04T04:46:53.069Z,101453.58
2017-12-04T04:49:18.902Z,101452.91
2017-12-04T04:51:44.738Z,101450.36
2017-12-04T04:54:10.574Z,101457.52
2017-12-04T04:56:36.399Z,101454.89
2017-12-04T04:59:02.235Z,101454.64
2017-12-04T05:01:28.059Z,101453.13
2017-12-04T05:03:54.726Z,101444.80
2017-12-04T05:06:20.586Z,101458.53
2017-12-04T05:08:46.387Z,101462.56
2017-12-04T05:11:13.020Z,101466.80
2017-12-04T05:13:39.693Z,101466.44
2017-12-04T05:16:06.656Z,101473.96
2017-12-04T05:18:33.377Z,101471.71
2017-12-04T05:21:00.076Z,101473.70
2017-12-04T05:23:25.964Z,101480.34
2017-12-04T05:25:52.167Z,101475.67
2017-12-04T05:28:17.954Z,101474.15
2017-12-04T05:30:43.752Z,101482.03
2017-12-04T05:33:09.559Z,101485.69
2017-12-04T05:35:35.367Z,101486.27
2017-12-04T05:38:01.153Z,101486.87
2017-12-04T05:40:26.991Z,101495.57
2017-12-04T05:42:52.774Z,101496.81
2017-12-04T05:45:18.590Z,101486.42
2017-12-04T05:47:44.722Z,101489.80
2017-12-04T05:50:10.522Z,101487.97
2017-12-04T05:52:36.330Z,101484.18
2017-12-04T05:55:02.176Z,101487.89
2017-12-04T05:57:27.998Z,101499.47
2017-12-04T05:59:53.792Z,101497.36
2017-12-04T06:02:20.415Z,101512.44
2017-12-04T06:04:46.206Z,101507.38
2017-12-04T06:07:11.979Z,101503.33
2017-12-04T06:09:38.028Z,101506.78
2017-12-04T06:12:03.822Z,101507.16
2017-12-04T06:14:29.594Z,101511.91
2017-12-04T06:16:55.410Z,101509.78
2017-12-04T06:19:21.251Z,101513.95
2017-12-04T06:21:47.040Z,101522.81
2017-12-04T06:24:12.829Z,101509.55
2017-12-04T06:26:38.605Z,101503.08
2017-12-04T06:29:04.399Z,101511.48
2017-12-04T06:31:30.207Z,101508.90
2017-12-04T06:33:55.982Z,101508.24
2017-12-04T06:36:21.763Z,101517.84
2017-12-04T06:38:47.575Z,101526.01
2017-12-04T06:41:13.358Z,101531.80
2017-12-04T06:43:39.142Z,101537.98
2017-12-04T06:46:04.947Z,101545.37
2017-12-04T06:48:30.812Z,101543.43
2017-12-04T06:50:56.663Z,101551.79
2017-12-04T06:53:22.480Z,101552.14
2017-12-04T06:55:48.314Z,101553.25
2017-12-04T06:58:14.098Z,101567.50
2017-12-04T07:00:40.062Z,101570.36
2017-12-04T07:03:05.850Z,101568.25
2017-12-04T07:05:31.628Z,101574.06
2017-12-04T07:07:57.653Z,101575.87
2017-12-04T07:10:23.436Z,101581.53
2017-12-04T07:12:49.224Z,101578.44
2017-12-04T07:15:15.020Z,101578.57
2017-12-04T07:17:41.073Z,101587.91
2017-12-04T07:20:06.864Z,101587.40
2017-12-04T07:22:32.679Z,101586.10
2017-12-04T07:24:58.491Z,101586.60
2017-12-04T07:27:24.462Z,101586.92
2017-12-04T07:29:50.249Z,101596.85
2017-12-04T07:32:16.031Z,101597.06
2017-12-04T07:34:41.857Z,101596.94
2017-12-04T07:37:07.644Z,101608.82
2017-12-04T07:39:33.435Z,101610.60
2017-12-04T07:41:59.226Z,101605.50
2017-12-04T07:44:25.005Z,101608.30
2017-12-04T07:46:50.815Z,101615.39
2017-12-04T07:49:16.977Z,101621.30
2017-12-04T07:51:42.758Z,101616.44
2017-12-04T07:54:08.550Z,101623.84
2017-12-04T07:56:34.343Z,101622.05
2017-12-04T07:59:00.127Z,101627.41
2017-12-04T08:01:26.043Z,101624.58
2017-12-04T08:03:51.851Z,101638.97
2017-12-04T08:06:18.033Z,101640.85
2017-12-04T08:08:43.862Z,101635.95
2017-12-04T08:11:09.662Z,101643.66
2017-12-04T08:13:35.459Z,101647.16
2017-12-04T08:16:01.567Z,101645.11
2017-12-04T08:18:27.358Z,101653.66
2017-12-04T08:20:53.167Z,101658.27
2017-12-04T08:23:19.375Z,101659.94
2017-12-04T08:25:46.025Z,101660.06
2017-12-04T08:28:12.724Z,101653.09
2017-12-04T08:30:39.610Z,101655.89
2017-12-04T08:33:06.444Z,101662.49
2017-12-04T08:35:34.577Z,101666.91
2017-12-04T08:38:00.806Z,101680.14
2017-12-04T08:40:27.168Z,101679.56
2017-12-04T08:42:53.291Z,101682.43
2017-12-04T08:45:19.873Z,101677.66
2017-12-04T08:47:45.677Z,101684.25
2017-12-04T08:50:11.481Z,101680.14
2017-12-04T08:52:37.532Z,101683.50
2017-12-04T08:55:03.395Z,101687.61
2017-12-04T08:57:29.189Z,101694.71
2017-12-04T08:59:55.457Z,101694.52
2017-12-04T09:02:21.302Z,101704.47
2017-12-04T09:04:47.242Z,101703.30
2017-12-04T09:07:13.484Z,101709.52
2017-12-04T09:09:39.544Z,101721.54
2017-12-04T09:12:05.473Z,101724.07
2017-12-04T09:14:31.273Z,101732.78
2017-12-04T09:16:57.733Z,101732.99
2017-12-04T09:19:23.587Z,101734.30
2017-12-04T09:21:49.397Z,101728.05
2017-12-04T09:24:15.371Z,101735.72
2017-12-04T09:26:42.421Z,101731.48
2017-12-04T09:29:08.537Z,101734.34
2017-12-04T09:31:34.437Z,101734.36
2017-12-04T09:34:00.390Z,101754.78
2017-12-04T09:36:26.234Z,101748.62
2017-12-04T09:38:51.982Z,101754.78
2017-12-04T09:41:18.549Z,101758.38
2017-12-04T09:43:44.412Z,101764.88
2017-12-04T09:46:11.219Z,101765.61
2017-12-04T09:48:37.106Z,101768.27
2017-12-04T09:51:03.356Z,101771.98
2017-12-04T09:53:29.226Z,101772.39
2017-12-04T09:55:55.595Z,101780.67
2017-12-04T09:58:22.232Z,101779.11
2017-12-04T10:00:49.453Z,101779.17
2017-12-04T10:03:16.035Z,101783.80
2017-12-04T10:05:42.808Z,101785.61
2017-12-04T10:08:09.552Z,101782.09
2017-12-04T10:10:36.385Z,101776.36
2017-12-04T10:13:03.007Z,101786.28
2017-12-04T10:15:29.832Z,101781.62
2017-12-04T10:17:56.803Z,101783.54
2017-12-04T10:20:22.704Z,101785.59
2017-12-04T10:22:48.528Z,101798.42
2017-12-04T10:25:14.874Z,101793.14
2017-12-04T10:27:40.690Z,101797.58
2017-12-04T10:30:06.508Z,101799.53
2017-12-04T10:32:32.352Z,101787.74
2017-12-04T10:34:58.163Z,101798.56
2017-12-04T10:37:24.009Z,101798.42
2017-12-04T10:42:17.384Z,101799.97
2017-12-04T10:44:44.312Z,101800.41
2017-12-04T10:47:10.850Z,101804.42
2017-12-04T10:49:36.724Z,101800.27
2017-12-04T10:52:02.543Z,101796.23
2017-12-04T10:54:28.584Z,101801.52
2017-12-04T10:56:54.499Z,101811.73
2017-12-04T10:59:20.321Z,101794.48
2017-12-04T11:01:46.424Z,101795.67
2017-12-04T11:04:12.339Z,101800.66
2017-12-04T11:06:38.196Z,101796.27
2017-12-04T11:09:05.402Z,101795.91
2017-12-04T11:11:31.855Z,101801.89
2017-12-04T11:13:57.973Z,101794.35
2017-12-04T11:16:23.775Z,101795.23
2017-12-04T11:18:50.256Z,101801.84
2017-12-04T11:21:17.071Z,101802.27
2017-12-04T11:23:43.002Z,101804.70
2017-12-04T11:26:09.391Z,101805.86
2017-12-04T11:28:35.362Z,101806.38
2017-12-04T11:31:01.183Z,101808.58
2017-12-04T11:33:27.175Z,101809.25
2017-12-04T11:35:53.514Z,101822.89
2017-12-04T11:38:19.523Z,101816.06
2017-12-04T11:40:45.364Z,101821.44
2017-12-04T11:43:11.420Z,101821.44
2017-12-04T11:45:38.015Z,101816.51
2017-12-04T11:48:05.249Z,101826.25
2017-12-04T11:50:31.496Z,101824.48
2017-12-04T11:52:57.483Z,101832.95
2017-12-04T11:55:23.317Z,101823.72
2017-12-04T11:57:49.965Z,101829.80
2017-12-04T12:00:16.505Z,101825.08
2017-12-04T12:02:42.733Z,101826.18
2017-12-04T12:05:08.613Z,101827.50
2017-12-04T12:07:34.431Z,101830.65
2017-12-04T12:10:00.310Z,101828.80
2017-12-04T12:12:27.363Z,101830.94
2017-12-04T12:14:53.674Z,101836.45
2017-12-04T12:17:19.673Z,101840.27
2017-12-04T12:19:45.520Z,101829.30
2017-12-04T12:22:12.052Z,101832.47
2017-12-04T12:24:37.890Z,101835.30
2017-12-04T12:27:04.781Z,101839.33
2017-12-04T12:29:31.431Z,101837.48
2017-12-04T12:31:58.757Z,101840.34
2017-12-04T12:34:25.252Z,101850.55
2017-12-04T12:36:51.284Z,101843.81
2017-12-04T12:39:17.859Z,101843.30
2017-12-04T12:41:43.669Z,101852.23
2017-12-04T12:44:09.491Z,101856.98
2017-12-04T12:46:35.704Z,101856.94
2017-12-04T12:49:02.363Z,101863.83
2017-12-04T12:51:29.074Z,101864.75
2017-12-04T12:53:55.869Z,101867.63
2017-12-04T12:56:22.288Z,101869.38
2017-12-04T12:58:48.616Z,101861.27
2017-12-04T13:01:14.471Z,101868.15
2017-12-04T13:03:41.163Z,101870.33
2017-12-04T13:06:08.242Z,101856.22
2017-12-04T13:08:34.926Z,101855.00
2017-12-04T13:11:00.996Z,101850.89
2017-12-04T13:13:27.372Z,101872.27
2017-12-04T13:15:53.188Z,101868.95
2017-12-04T13:18:19.975Z,101881.08
2017-12-04T13:20:46.101Z,101880.15
2017-12-04T13:23:11.952Z,101884.55
2017-12-04T13:25:38.682Z,101873.45
2017-12-04T13:28:05.943Z,101882.42
2017-12-04T13:30:33.017Z,101878.16
2017-12-04T13:33:12.220Z,101874.02
2017-12-04T13:35:51.483Z,101874.55
2017-12-04T13:38:17.672Z,101873.42
2017-12-04T13:40:44.310Z,101865.94
2017-12-04T13:43:10.126Z,101872.44
2017-12-04T13:45:35.958Z,101875.55
2017-12-04T13:48:02.395Z,101868.67
2017-12-04T13:50:29.155Z,101870.19
2017-12-04T13:52:56.074Z,101873.69
2017-12-04T13:55:22.971Z,101877.36
2017-12-04T13:57:49.144Z,101877.16
2017-12-04T14:00:15.105Z,101882.52
2017-12-04T14:02:41.900Z,101885.85
2017-12-04T14:05:08.020Z,101888.14
2017-12-04T14:07:35.094Z,101887.09
2017-12-04T14:10:01.428Z,101891.91
2017-12-04T14:12:27.404Z,101889.45
2017-12-04T14:14:54.188Z,101893.77
2017-12-04T14:17:21.033Z,101899.70
2017-12-04T14:19:47.079Z,101900.80
2017-12-04T14:22:12.998Z,101901.80
2017-12-04T14:24:38.872Z,101918.89
2017-12-04T14:27:04.925Z,101918.38
2017-12-04T14:29:30.812Z,101924.86
2017-12-04T14:31:56.612Z,101921.73
2017-12-04T14:34:22.666Z,101927.34
2017-12-04T14:36:48.556Z,101931.27
2017-12-04T14:39:14.563Z,101934.70
2017-12-04T14:41:40.589Z,101936.88
2017-12-04T14:44:08.046Z,101942.48
2017-12-04T14:46:33.920Z,101936.95
2017-12-04T14:48:59.751Z,101944.80
2017-12-04T14:51:25.620Z,101941.28
2017-12-04T14:53:51.452Z,101949.14
2017-12-04T14:56:18.095Z,101951.83
2017-12-04T14:58:44.524Z,101962.16
2017-12-04T15:01:10.336Z,101961.27
2017-12-04T15:03:36.147Z,101956.30
2017-12-04T15:06:02.187Z,101966.12
2017-12-04T15:08:28.009Z,101971.59
2017-12-04T15:10:53.827Z,101965.05
2017-12-04T15:13:19.830Z,101970.41
2017-12-04T15:15:45.658Z,101974.63
2017-12-04T15:18:11.476Z,101973.02
2017-12-04T15:20:37.327Z,101981.66
2017-12-04T15:23:03.141Z,101991.62
2017-12-04T15:25:28.943Z,101984.38
2017-12-04T15:27:54.940Z,101987.50
2017-12-04T15:30:20.757Z,101981.19
2017-12-04T15:32:46.550Z,101979.77
2017-12-04T15:35:12.375Z,101982.32
2017-12-04T15:37:38.188Z,101992.72
2017-12-04T15:40:04.004Z,101991.81
2017-12-04T15:42:29.834Z,101996.20
2017-12-04T15:44:55.651Z,102001.57
2017-12-04T15:47:21.449Z,101999.66
2017-12-04T15:49:47.278Z,101999.50
2017-12-04T15:52:13.070Z,101999.82
2017-12-04T15:54:38.877Z,102005.97
2017-12-04T15:57:04.978Z,102007.18
2017-12-04T15:59:30.797Z,102009.95
2017-12-04T16:01:56.604Z,102014.61
2017-12-04T16:04:22.452Z,102024.84
2017-12-04T16:06:48.263Z,102029.88
2017-12-04T16:09:14.075Z,102035.23
2017-12-04T16:11:39.901Z,102024.64
2017-12-04T16:14:05.710Z,102023.78
2017-12-04T16:16:31.510Z,102042.59
2017-12-04T16:18:57.556Z,102046.89
2017-12-04T16:21:23.371Z,102048.45
2017-12-04T16:23:49.164Z,102048.77
2017-12-04T16:26:16.136Z,102046.21
2017-12-04T16:28:41.934Z,102041.42
2017-12-04T16:31:07.749Z,102035.88
2017-12-04T16:33:33.584Z,102041.83
2017-12-04T16:35:59.413Z,102049.95
2017-12-04T16:38:25.226Z,102053.42
2017-12-04T16:40:51.063Z,102049.17
2017-12-04T16:43:16.887Z,102057.87
2017-12-04T16:45:42.691Z,102059.97
2017-12-04T16:48:08.495Z,102058.82
2017-12-04T16:50:34.312Z,102052.98
2017-12-04T16:53:00.102Z,102053.03
2017-12-04T16:55:25.939Z,102047.08
2017-12-04T16:57:51.715Z,102040.34
2017-12-04T17:00:17.596Z,102052.33
2017-12-04T17:02:43.415Z,102063.17
2017-12-04T17:05:09.239Z,102067.08
2017-12-04T17:07:35.099Z,102062.83
2017-12-04T17:10:00.945Z,102064.39
2017-12-04T17:12:26.743Z,102064.20
2017-12-04T17:14:52.800Z,102073.03
2017-12-04T17:17:18.646Z,102075.72
2017-12-04T17:19:44.509Z,102079.45
2017-12-04T17:22:10.314Z,102091.82
2017-12-04T17:24:36.104Z,102089.54
2017-12-04T17:27:02.213Z,102094.11
2017-12-04T17:29:28.022Z,102091.70
2017-12-04T17:31:53.837Z,102086.84
2017-12-04T17:34:19.644Z,102100.05
2017-12-04T17:36:45.450Z,102104.80
2017-12-04T17:39:11.252Z,102103.42
2017-12-04T17:41:37.091Z,102099.88
2017-12-04T17:44:02.883Z,102102.81
2017-12-04T17:46:28.718Z,102100.55
2017-12-04T17:48:54.535Z,102104.34
2017-12-04T17:51:20.336Z,102108.89
2017-12-04T17:53:46.200Z,102114.38
2017-12-04T17:56:12.002Z,102121.17
2017-12-04T17:58:37.800Z,102122.04
2017-12-04T18:01:03.646Z,102120.83
2017-12-04T18:03:29.480Z,102119.59
2017-12-04T18:05:55.307Z,102128.98
2017-12-04T18:08:21.144Z,102131.44
2017-12-04T18:10:46.952Z,102132.48
2017-12-04T18:13:12.755Z,102128.02
2017-12-04T18:15:38.693Z,102124.95
2017-12-04T18:18:04.505Z,102127.00
2017-12-04T18:20:30.309Z,102102.55
2017-12-04T18:22:56.388Z,102118.39
2017-12-04T18:25:22.187Z,102117.05
2017-12-04T18:27:47.995Z,102123.94
2017-12-04T18:30:13.820Z,102125.03
2017-12-04T18:32:39.634Z,102121.79
2017-12-04T18:35:05.469Z,102121.67
2017-12-04T18:37:31.306Z,102118.75
2017-12-04T18:39:57.124Z,102114.97
2017-12-04T18:42:22.939Z,102113.91
2017-12-04T18:44:48.858Z,102117.74
2017-12-04T18:47:14.674Z,102111.63
2017-12-04T18:49:40.500Z,102115.08
2017-12-04T18:52:06.337Z,102115.37
2017-12-04T18:54:32.157Z,102109.61
2017-12-04T18:56:57.946Z,102111.78
2017-12-04T18:59:23.843Z,102113.09
2017-12-04T19:01:49.647Z,102108.06
2017-12-04T19:04:15.468Z,102108.42
2017-12-04T19:06:41.300Z,102113.92
2017-12-04T19:09:07.121Z,102113.97
2017-12-04T19:11:33.194Z,102121.98
2017-12-04T19:13:59.336Z,102120.62
2017-12-04T19:16:25.953Z,102119.66
2017-12-04T19:18:51.777Z,102116.60
2017-12-04T19:21:17.771Z,102118.49
2017-12-04T19:23:43.584Z,102117.98
2017-12-04T19:26:09.396Z,102116.15
2017-12-04T19:28:35.569Z,102114.08
2017-12-04T19:31:01.379Z,102117.82
2017-12-04T19:33:27.179Z,102121.94
2017-12-04T19:35:52.972Z,102119.38
2017-12-04T19:38:18.803Z,102121.66
2017-12-04T19:40:44.635Z,102115.45
2017-12-04T19:43:10.452Z,102117.34
2017-12-04T19:45:36.286Z,102126.29
2017-12-04T19:48:02.080Z,102127.28
2017-12-04T19:50:27.878Z,102119.58
2017-12-04T19:52:54.023Z,102126.77
2017-12-04T19:55:19.863Z,102131.76
2017-12-04T19:57:45.718Z,102122.57
2017-12-04T20:00:11.617Z,102121.23
2017-12-04T20:02:37.447Z,102121.61
2017-12-04T20:05:03.287Z,102120.13
2017-12-04T20:10:07.158Z,102119.62
2017-12-04T20:12:32.975Z,102117.10
2017-12-04T20:14:58.774Z,102121.41
2017-12-04T20:17:24.609Z,102123.79
2017-12-04T20:19:50.410Z,102117.39
2017-12-04T20:22:16.232Z,102125.01
2017-12-04T20:24:42.070Z,102128.95
2017-12-04T20:27:07.870Z,102125.26
2017-12-04T20:29:33.680Z,102124.27
2017-12-04T20:31:59.746Z,102130.35
2017-12-04T20:34:25.552Z,102131.23
2017-12-04T20:36:51.355Z,102126.62
2017-12-04T20:39:17.186Z,102126.55
2017-12-04T20:41:42.983Z,102140.06
2017-12-04T20:44:08.771Z,102134.89
2017-12-04T20:46:34.615Z,102131.64
2017-12-04T20:49:00.406Z,102137.53
2017-12-04T20:51:26.208Z,102134.89
2017-12-04T20:53:52.034Z,102130.39
2017-12-04T20:56:17.848Z,102133.47
2017-12-04T20:58:43.684Z,102138.56
2017-12-04T21:01:09.492Z,102133.40
2017-12-04T21:03:35.374Z,102131.78
2017-12-04T21:06:01.287Z,102126.04
2017-12-04T21:08:39.577Z,102132.08
2017-12-04T21:11:17.626Z,102130.56
2017-12-04T21:13:55.727Z,102127.64
2017-12-04T21:19:17.535Z,102126.91
2017-12-04T21:21:43.327Z,102124.73
2017-12-04T21:24:09.136Z,102127.81
2017-12-04T21:26:34.948Z,102127.70
2017-12-04T21:29:00.740Z,102119.78
2017-12-04T21:31:26.545Z,102118.89
2017-12-04T21:33:52.388Z,102114.56
2017-12-04T21:36:18.178Z,102111.05
2017-12-04T21:38:43.962Z,102124.52
2017-12-04T21:41:09.796Z,102113.38
2017-12-04T21:43:35.602Z,102114.24
2017-12-04T21:46:01.412Z,102109.80
2017-12-04T21:48:27.490Z,102110.29
2017-12-04T21:50:53.295Z,102117.35
2017-12-04T21:53:19.088Z,102107.06
2017-12-04T21:55:44.930Z,102110.41
2017-12-04T21:58:10.713Z,102113.20
2017-12-04T22:00:36.519Z,102115.55
2017-12-04T22:03:02.347Z,102114.69
2017-12-04T22:05:28.142Z,102116.64
2017-12-04T22:07:53.946Z,102115.93
2017-12-04T22:10:19.791Z,102121.29
2017-12-04T22:12:45.611Z,102113.81
2017-12-04T22:15:11.429Z,102114.25
2017-12-04T22:17:37.247Z,102106.62
2017-12-04T22:20:03.052Z,102112.02
2017-12-04T22:22:28.850Z,102110.66
2017-12-04T22:24:54.765Z,102101.81
2017-12-04T22:27:20.577Z,102105.12
2017-12-04T22:29:46.388Z,102100.52
2017-12-04T22:32:12.203Z,102098.39
2017-12-04T22:34:38.001Z,102095.17
2017-12-04T22:37:03.795Z,102093.94
2017-12-04T22:39:29.598Z,102098.13
2017-12-04T22:41:55.406Z,102102.41
2017-12-04T22:44:21.215Z,102098.66
2017-12-04T22:46:47.046Z,102097.48
2017-12-04T22:49:12.856Z,102092.28
2017-12-04T22:51:38.659Z,102094.20
2017-12-04T22:54:04.592Z,102094.33
2017-12-04T22:56:30.453Z,102095.58
2017-12-04T22:58:56.319Z,102099.09
2017-12-04T23:01:22.338Z,102089.50
2017-12-04T23:03:48.173Z,102090.50
2017-12-04T23:06:14.025Z,102100.91
2017-12-04T23:08:39.847Z,102090.81
2017-12-04T23:11:05.678Z,102081.28
2017-12-04T23:13:31.471Z,102088.41
2017-12-04T23:15:57.419Z,102095.28
2017-12-04T23:18:23.238Z,102094.34
2017-12-04T23:20:49.046Z,102088.61
2017-12-04T23:23:14.894Z,102097.98
2017-12-04T23:25:40.734Z,102086.56
2017-12-04T23:28:06.526Z,102104.84
2017-12-04T23:30:32.585Z,102103.84
2017-12-04T23:32:58.410Z,102095.99
2017-12-04T23:35:24.204Z,102097.18
2017-12-04T23:37:50.064Z,102105.41
2017-12-04T23:40:15.862Z,102098.67
2017-12-04T23:42:41.676Z,102099.22
2017-12-04T23:45:07.486Z,102105.66
2017-12-04T23:47:33.277Z,102102.09
2017-12-04T23:49:59.083Z,102104.02
2017-12-04T23:52:24.902Z,102108.14
2017-12-04T23:54:50.688Z,102101.66
2017-12-04T23:57:16.459Z,102100.28
2017-12-04T23:59:42.255Z,102104.94
